PWSweather.com
Personal Weather Stations
Station Observations
MAKAWAOWX1
Up Country Maui, Makawao, HI 96768

Up Country MauiMakawao, HI 96768

Lat: 20.856944, Lon: -156.3149667

Elevation: 1500

Station Type: Davis Vantage Pro

www.dwayneyamato@hawaiiantel.net

High Low Average
Temperature 77.8°F25.4°C 66.8°F19.3°C 71.0°F21.7°C
Dew Point 67.6°F19.8°C 61.6°F16.4°C 64.7°F18.2°C
Winds 12.9 mph 20.8 kmh 2.5 mph 4.0 kmh 8.0 mph E12.9 kmh E
Wind Gusts 22.0 mph35.4 kmh 2.0 mph3.2 kmh 14.0 mph22.5 kmh
Humidity 91% 66% 81%
Pressure 30.01 in1016.3 mb 29.90 in1012.5 mb -
Precipitation 0.04 in1.0 mm - -
Hour Temp Dew Point Humidity Winds Wind Gusts Pressure Precip Precip Rate Daily Precip Total
12:00 AM 68.9°F20.5°C 65.5°F18.6°C 89% 4.8 mph E7.7 kmh E 8.0 mph12.9 kmh 30.00 in1015.9 mb 0.00 in0.0 mm 0.00 in/hr0.0 mm/hr 0.00 in0.0 mm
12:10 AM 69.0°F20.6°C 65.6°F18.7°C 89% 7.7 mph E12.4 kmh E 8.0 mph12.9 kmh 30.00 in1015.9 mb 0.00 in0.0 mm 0.00 in/hr0.0 mm/hr 0.00 in0.0 mm
12:20 AM 68.9°F20.5°C 65.5°F18.6°C 89% 3.5 mph E5.6 kmh E 11.0 mph17.7 kmh 30.01 in1016.3 mb 0.00 in0.0 mm 0.00 in/hr0.0 mm/hr 0.00 in0.0 mm
12:30 AM 68.8°F20.4°C 65.4°F18.6°C 89% 6.2 mph ENE10.0 kmh ENE 13.0 mph20.9 kmh 30.00 in1015.9 mb 0.00 in0.0 mm 0.00 in/hr0.0 mm/hr 0.00 in0.0 mm
12:40 AM 68.8°F20.4°C 65.1°F18.4°C 88% 6.6 mph E10.6 kmh E 13.0 mph20.9 kmh 30.00 in1015.9 mb 0.00 in0.0 mm 0.00 in/hr0.0 mm/hr 0.00 in0.0 mm
12:50 AM 69.1°F20.6°C 65.1°F18.4°C 87% 10.2 mph E16.4 kmh E 16.0 mph25.7 kmh 30.00 in1015.9 mb 0.00 in0.0 mm 0.00 in/hr0.0 mm/hr 0.00 in0.0 mm
01:00 AM 69.2°F20.7°C 65.2°F18.4°C 87% 7.8 mph E12.6 kmh E 13.0 mph20.9 kmh 29.99 in1015.6 mb 0.00 in0.0 mm 0.00 in/hr0.0 mm/hr 0.00 in0.0 mm
01:10 AM 69.3°F20.7°C 65.6°F18.7°C 88% 10.4 mph E16.7 kmh E 15.0 mph24.1 kmh 29.99 in1015.6 mb 0.01 in0.3 mm 0.06 in/hr1.5 mm/hr 0.01 in0.3 mm
01:20 AM 69.2°F20.7°C 65.5°F18.6°C 88% 9.7 mph E15.6 kmh E 12.0 mph19.3 kmh 29.99 in1015.6 mb 0.00 in0.0 mm 0.00 in/hr0.0 mm/hr 0.01 in0.3 mm
01:30 AM 69.0°F20.6°C 64.9°F18.3°C 87% 7.9 mph E12.7 kmh E 9.0 mph14.5 kmh 29.98 in1015.2 mb 0.00 in0.0 mm 0.00 in/hr0.0 mm/hr 0.01 in0.3 mm
01:40 AM 69.0°F20.6°C 64.3°F17.9°C 85% 5.5 mph ENE8.9 kmh ENE 9.0 mph14.5 kmh 29.98 in1015.2 mb 0.00 in0.0 mm 0.00 in/hr0.0 mm/hr 0.01 in0.3 mm
01:50 AM 68.9°F20.5°C 64.5°F18.1°C 86% 6.3 mph E10.1 kmh E 14.0 mph22.5 kmh 29.97 in1014.9 mb 0.00 in0.0 mm 0.00 in/hr0.0 mm/hr 0.01 in0.3 mm
02:00 AM 69.0°F20.6°C 64.3°F17.9°C 85% 9.8 mph E15.8 kmh E 17.0 mph27.4 kmh 29.97 in1014.9 mb 0.00 in0.0 mm 0.00 in/hr0.0 mm/hr 0.01 in0.3 mm
02:10 AM 69.1°F20.6°C 64.1°F17.8°C 84% 6.6 mph ESE10.6 kmh ESE 15.0 mph24.1 kmh 29.96 in1014.6 mb 0.00 in0.0 mm 0.00 in/hr0.0 mm/hr 0.01 in0.3 mm
02:20 AM 68.9°F20.5°C 63.5°F17.5°C 83% 3.3 mph ENE5.3 kmh ENE 5.0 mph8.0 kmh 29.96 in1014.6 mb 0.00 in0.0 mm 0.00 in/hr0.0 mm/hr 0.01 in0.3 mm
02:30 AM 68.5°F20.3°C 64.5°F18.1°C 87% 7.6 mph NE12.2 kmh NE 10.0 mph16.1 kmh 29.97 in1014.9 mb 0.00 in0.0 mm 0.00 in/hr0.0 mm/hr 0.01 in0.3 mm
02:40 AM 68.2°F20.1°C 64.5°F18.1°C 88% 8.2 mph E13.2 kmh E 10.0 mph16.1 kmh 29.97 in1014.9 mb 0.00 in0.0 mm 0.00 in/hr0.0 mm/hr 0.01 in0.3 mm
02:50 AM 68.2°F20.1°C 63.9°F17.7°C 86% 6.2 mph E10.0 kmh E 14.0 mph22.5 kmh 29.96 in1014.6 mb 0.00 in0.0 mm 0.00 in/hr0.0 mm/hr 0.01 in0.3 mm
03:00 AM 68.2°F20.1°C 64.2°F17.9°C 87% 9.4 mph E15.1 kmh E 15.0 mph24.1 kmh 29.96 in1014.6 mb 0.00 in0.0 mm 0.00 in/hr0.0 mm/hr 0.01 in0.3 mm
03:10 AM 68.2°F20.1°C 64.2°F17.9°C 87% 10.6 mph E17.1 kmh E 16.0 mph25.7 kmh 29.95 in1014.2 mb 0.00 in0.0 mm 0.00 in/hr0.0 mm/hr 0.01 in0.3 mm
03:20 AM 68.2°F20.1°C 64.2°F17.9°C 87% 9.8 mph E15.8 kmh E 14.0 mph22.5 kmh 29.95 in1014.2 mb 0.00 in0.0 mm 0.00 in/hr0.0 mm/hr 0.01 in0.3 mm
03:30 AM 68.1°F20.1°C 64.4°F18.0°C 88% 6.3 mph E10.1 kmh E 15.0 mph24.1 kmh 29.95 in1014.2 mb 0.00 in0.0 mm 0.00 in/hr0.0 mm/hr 0.01 in0.3 mm
03:40 AM 68.0°F20.0°C 64.6°F18.1°C 89% 6.1 mph ENE9.8 kmh ENE 9.0 mph14.5 kmh 29.95 in1014.2 mb 0.00 in0.0 mm 0.00 in/hr0.0 mm/hr 0.01 in0.3 mm
03:50 AM 67.9°F19.9°C 64.9°F18.3°C 90% 7.4 mph ENE11.9 kmh ENE 12.0 mph19.3 kmh 29.96 in1014.6 mb 0.00 in0.0 mm 0.00 in/hr0.0 mm/hr 0.01 in0.3 mm
04:00 AM 67.8°F19.9°C 64.8°F18.2°C 90% 6.9 mph E11.1 kmh E 11.0 mph17.7 kmh 29.95 in1014.2 mb 0.00 in0.0 mm 0.00 in/hr0.0 mm/hr 0.01 in0.3 mm
04:10 AM 67.8°F19.9°C 64.8°F18.2°C 90% 8.1 mph NE13.0 kmh NE 14.0 mph22.5 kmh 29.96 in1014.6 mb 0.00 in0.0 mm 0.00 in/hr0.0 mm/hr 0.01 in0.3 mm
04:20 AM 67.8°F19.9°C 64.4°F18.0°C 89% 9.1 mph ENE14.6 kmh ENE 12.0 mph19.3 kmh 29.96 in1014.6 mb 0.00 in0.0 mm 0.00 in/hr0.0 mm/hr 0.01 in0.3 mm
04:30 AM 67.9°F19.9°C 64.5°F18.1°C 89% 6.1 mph ENE9.8 kmh ENE 9.0 mph14.5 kmh 29.97 in1014.9 mb 0.00 in0.0 mm 0.00 in/hr0.0 mm/hr 0.01 in0.3 mm
04:40 AM 67.9°F19.9°C 64.2°F17.9°C 88% 8.1 mph NE13.0 kmh NE 18.0 mph29.0 kmh 29.96 in1014.6 mb 0.00 in0.0 mm 0.00 in/hr0.0 mm/hr 0.01 in0.3 mm
04:50 AM 67.9°F19.9°C 63.9°F17.7°C 87% 8.5 mph E13.7 kmh E 16.0 mph25.7 kmh 29.96 in1014.6 mb 0.00 in0.0 mm 0.00 in/hr0.0 mm/hr 0.01 in0.3 mm
05:00 AM 67.8°F19.9°C 63.8°F17.7°C 87% 4.2 mph E6.8 kmh E 13.0 mph20.9 kmh 29.96 in1014.6 mb 0.00 in0.0 mm 0.00 in/hr0.0 mm/hr 0.01 in0.3 mm
05:10 AM 67.7°F19.8°C 64.1°F17.8°C 88% 7.8 mph E12.6 kmh E 10.0 mph16.1 kmh 29.96 in1014.6 mb 0.00 in0.0 mm 0.00 in/hr0.0 mm/hr 0.01 in0.3 mm
05:20 AM 67.5°F19.7°C 63.5°F17.5°C 87% 6.8 mph E10.9 kmh E 9.0 mph14.5 kmh 29.96 in1014.6 mb 0.00 in0.0 mm 0.00 in/hr0.0 mm/hr 0.01 in0.3 mm
05:30 AM 67.4°F19.7°C 63.4°F17.4°C 87% 4.9 mph E7.9 kmh E 10.0 mph16.1 kmh 29.96 in1014.6 mb 0.00 in0.0 mm 0.00 in/hr0.0 mm/hr 0.01 in0.3 mm
05:40 AM 67.3°F19.6°C 63.0°F17.2°C 86% 3.5 mph E5.6 kmh E 12.0 mph19.3 kmh 29.96 in1014.6 mb 0.00 in0.0 mm 0.00 in/hr0.0 mm/hr 0.01 in0.3 mm
05:50 AM 67.4°F19.7°C 62.7°F17.1°C 85% 5.5 mph E8.9 kmh E 14.0 mph22.5 kmh 29.96 in1014.6 mb 0.00 in0.0 mm 0.00 in/hr0.0 mm/hr 0.01 in0.3 mm
06:00 AM 67.2°F19.6°C 62.9°F17.2°C 86% 7.8 mph E12.6 kmh E 12.0 mph19.3 kmh 29.96 in1014.6 mb 0.00 in0.0 mm 0.00 in/hr0.0 mm/hr 0.01 in0.3 mm
06:10 AM 67.1°F19.5°C 62.8°F17.1°C 86% 9.8 mph ENE15.8 kmh ENE 15.0 mph24.1 kmh 29.97 in1014.9 mb 0.00 in0.0 mm 0.00 in/hr0.0 mm/hr 0.01 in0.3 mm
06:20 AM 66.8°F19.3°C 62.5°F16.9°C 86% 8.8 mph E14.2 kmh E 12.0 mph19.3 kmh 29.97 in1014.9 mb 0.00 in0.0 mm 0.00 in/hr0.0 mm/hr 0.01 in0.3 mm
06:30 AM 66.8°F19.3°C 62.5°F16.9°C 86% 8.1 mph E13.0 kmh E 12.0 mph19.3 kmh 29.96 in1014.6 mb 0.00 in0.0 mm 0.00 in/hr0.0 mm/hr 0.01 in0.3 mm
06:40 AM 66.9°F19.4°C 62.3°F16.8°C 85% 8.4 mph ENE13.5 kmh ENE 11.0 mph17.7 kmh 29.97 in1014.9 mb 0.00 in0.0 mm 0.00 in/hr0.0 mm/hr 0.01 in0.3 mm
06:50 AM 67.1°F19.5°C 62.4°F16.9°C 85% 11.1 mph ENE17.9 kmh ENE 14.0 mph22.5 kmh 29.97 in1014.9 mb 0.00 in0.0 mm 0.00 in/hr0.0 mm/hr 0.01 in0.3 mm
07:00 AM 67.1°F19.5°C 62.8°F17.1°C 86% 7.0 mph ENE11.3 kmh ENE 9.0 mph14.5 kmh 29.97 in1014.9 mb 0.00 in0.0 mm 0.00 in/hr0.0 mm/hr 0.01 in0.3 mm
07:10 AM 67.3°F19.6°C 62.9°F17.2°C 86% 8.1 mph E13.0 kmh E 9.0 mph14.5 kmh 29.97 in1014.9 mb 0.00 in0.0 mm 0.00 in/hr0.0 mm/hr 0.01 in0.3 mm
07:20 AM 67.8°F19.9°C 63.1°F17.3°C 85% 9.4 mph E15.1 kmh E 15.0 mph24.1 kmh 29.98 in1015.2 mb 0.00 in0.0 mm 0.00 in/hr0.0 mm/hr 0.01 in0.3 mm
07:30 AM 68.3°F20.2°C 62.9°F17.2°C 83% 10.3 mph E16.6 kmh E 15.0 mph24.1 kmh 29.98 in1015.2 mb 0.00 in0.0 mm 0.00 in/hr0.0 mm/hr 0.01 in0.3 mm
07:40 AM 69.0°F20.6°C 62.5°F16.9°C 80% 6.1 mph E9.8 kmh E 12.0 mph19.3 kmh 29.98 in1015.2 mb 0.00 in0.0 mm 0.00 in/hr0.0 mm/hr 0.01 in0.3 mm
07:50 AM 70.1°F21.2°C 62.2°F16.8°C 76% 7.9 mph ENE12.7 kmh ENE 16.0 mph25.7 kmh 29.98 in1015.2 mb 0.00 in0.0 mm 0.00 in/hr0.0 mm/hr 0.01 in0.3 mm
08:00 AM 71.1°F21.7°C 61.6°F16.4°C 72% 9.1 mph E14.6 kmh E 16.0 mph25.7 kmh 29.98 in1015.2 mb 0.00 in0.0 mm 0.00 in/hr0.0 mm/hr 0.01 in0.3 mm
08:10 AM 71.9°F22.2°C 62.4°F16.9°C 72% 7.7 mph E12.4 kmh E 9.0 mph14.5 kmh 29.99 in1015.6 mb 0.00 in0.0 mm 0.00 in/hr0.0 mm/hr 0.01 in0.3 mm
08:20 AM 72.4°F22.4°C 64.0°F17.8°C 75% 10.3 mph E16.6 kmh E 15.0 mph24.1 kmh 29.99 in1015.6 mb 0.00 in0.0 mm 0.00 in/hr0.0 mm/hr 0.01 in0.3 mm
08:30 AM 72.7°F22.6°C 63.9°F17.7°C 74% 7.1 mph ENE11.4 kmh ENE 13.0 mph20.9 kmh 30.00 in1015.9 mb 0.00 in0.0 mm 0.00 in/hr0.0 mm/hr 0.01 in0.3 mm
08:40 AM 73.1°F22.8°C 63.9°F17.7°C 73% 8.4 mph ENE13.5 kmh ENE 12.0 mph19.3 kmh 30.00 in1015.9 mb 0.00 in0.0 mm 0.00 in/hr0.0 mm/hr 0.01 in0.3 mm
08:50 AM 73.7°F23.2°C 64.5°F18.1°C 73% 7.8 mph NE12.6 kmh NE 15.0 mph24.1 kmh 30.00 in1015.9 mb 0.00 in0.0 mm 0.00 in/hr0.0 mm/hr 0.01 in0.3 mm
09:00 AM 74.5°F23.6°C 63.6°F17.6°C 69% 7.7 mph E12.4 kmh E 11.0 mph17.7 kmh 30.00 in1015.9 mb 0.00 in0.0 mm 0.00 in/hr0.0 mm/hr 0.01 in0.3 mm
09:10 AM 75.0°F23.9°C 64.5°F18.1°C 70% 10.0 mph ENE16.1 kmh ENE 15.0 mph24.1 kmh 30.00 in1015.9 mb 0.00 in0.0 mm 0.00 in/hr0.0 mm/hr 0.01 in0.3 mm
09:20 AM 74.6°F23.7°C 65.4°F18.6°C 73% 9.2 mph E14.8 kmh E 14.0 mph22.5 kmh 30.00 in1015.9 mb 0.00 in0.0 mm 0.00 in/hr0.0 mm/hr 0.01 in0.3 mm
09:30 AM 74.9°F23.8°C 65.6°F18.7°C 73% 8.8 mph ENE14.2 kmh ENE 19.0 mph30.6 kmh 30.01 in1016.3 mb 0.00 in0.0 mm 0.00 in/hr0.0 mm/hr 0.01 in0.3 mm
09:40 AM 74.3°F23.5°C 65.8°F18.8°C 75% 8.7 mph ENE14.0 kmh ENE 12.0 mph19.3 kmh 30.00 in1015.9 mb 0.00 in0.0 mm 0.00 in/hr0.0 mm/hr 0.01 in0.3 mm
09:50 AM 75.1°F23.9°C 66.3°F19.1°C 74% 8.2 mph ENE13.2 kmh ENE 11.0 mph17.7 kmh 30.00 in1015.9 mb 0.00 in0.0 mm 0.00 in/hr0.0 mm/hr 0.01 in0.3 mm
10:00 AM 75.7°F24.3°C 66.4°F19.1°C 73% 10.4 mph ENE16.7 kmh ENE 14.0 mph22.5 kmh 30.01 in1016.3 mb 0.00 in0.0 mm 0.00 in/hr0.0 mm/hr 0.01 in0.3 mm
10:10 AM 75.9°F24.4°C 66.6°F19.2°C 73% 12.9 mph ENE20.8 kmh ENE 18.0 mph29.0 kmh 30.01 in1016.3 mb 0.00 in0.0 mm 0.00 in/hr0.0 mm/hr 0.01 in0.3 mm
10:20 AM 76.1°F24.5°C 66.8°F19.3°C 73% 12.5 mph NE20.1 kmh NE 16.0 mph25.7 kmh 30.01 in1016.3 mb 0.00 in0.0 mm 0.00 in/hr0.0 mm/hr 0.01 in0.3 mm
10:30 AM 76.3°F24.6°C 66.6°F19.2°C 72% 12.5 mph ENE20.1 kmh ENE 15.0 mph24.1 kmh 30.01 in1016.3 mb 0.00 in0.0 mm 0.00 in/hr0.0 mm/hr 0.01 in0.3 mm
10:40 AM 76.6°F24.8°C 66.9°F19.4°C 72% 9.2 mph E14.8 kmh E 17.0 mph27.4 kmh 30.01 in1016.3 mb 0.00 in0.0 mm 0.00 in/hr0.0 mm/hr 0.01 in0.3 mm
10:50 AM 76.7°F24.8°C 66.6°F19.2°C 71% 7.9 mph ENE12.7 kmh ENE 13.0 mph20.9 kmh 30.01 in1016.3 mb 0.00 in0.0 mm 0.00 in/hr0.0 mm/hr 0.01 in0.3 mm
11:00 AM 77.1°F25.1°C 66.1°F18.9°C 69% 11.6 mph ENE18.7 kmh ENE 17.0 mph27.4 kmh 30.00 in1015.9 mb 0.00 in0.0 mm 0.00 in/hr0.0 mm/hr 0.01 in0.3 mm
11:10 AM 77.6°F25.3°C 67.4°F19.7°C 71% 9.9 mph NE15.9 kmh NE 16.0 mph25.7 kmh 30.00 in1015.9 mb 0.00 in0.0 mm 0.00 in/hr0.0 mm/hr 0.01 in0.3 mm
11:20 AM 76.8°F24.9°C 67.0°F19.4°C 72% 6.0 mph ENE9.7 kmh ENE 17.0 mph27.4 kmh 29.99 in1015.6 mb 0.00 in0.0 mm 0.00 in/hr0.0 mm/hr 0.01 in0.3 mm
11:30 AM 76.5°F24.7°C 67.6°F19.8°C 74% 10.1 mph ENE16.3 kmh ENE 18.0 mph29.0 kmh 29.99 in1015.6 mb 0.00 in0.0 mm 0.00 in/hr0.0 mm/hr 0.01 in0.3 mm
11:40 AM 76.3°F24.6°C 67.0°F19.4°C 73% 8.8 mph NE14.2 kmh NE 17.0 mph27.4 kmh 29.99 in1015.6 mb 0.00 in0.0 mm 0.00 in/hr0.0 mm/hr 0.01 in0.3 mm
11:50 AM 76.8°F24.9°C 67.1°F19.5°C 72% 10.3 mph ENE16.6 kmh ENE 13.0 mph20.9 kmh 29.98 in1015.2 mb 0.00 in0.0 mm 0.00 in/hr0.0 mm/hr 0.01 in0.3 mm
12:00 PM 77.0°F25.0°C 66.5°F19.2°C 70% 7.6 mph NE12.2 kmh NE 13.0 mph20.9 kmh 29.97 in1014.9 mb 0.00 in0.0 mm 0.00 in/hr0.0 mm/hr 0.01 in0.3 mm
12:10 PM 77.2°F25.1°C 66.7°F19.3°C 70% 11.2 mph NE18.0 kmh NE 16.0 mph25.7 kmh 29.97 in1014.9 mb 0.00 in0.0 mm 0.00 in/hr0.0 mm/hr 0.01 in0.3 mm
12:20 PM 77.6°F25.3°C 67.0°F19.4°C 70% 10.9 mph E17.5 kmh E 16.0 mph25.7 kmh 29.97 in1014.9 mb 0.00 in0.0 mm 0.00 in/hr0.0 mm/hr 0.01 in0.3 mm
12:30 PM 76.4°F24.7°C 66.3°F19.1°C 71% 4.3 mph E6.9 kmh E 17.0 mph27.4 kmh 29.97 in1014.9 mb 0.00 in0.0 mm 0.00 in/hr0.0 mm/hr 0.01 in0.3 mm
12:40 PM 77.3°F25.2°C 66.4°F19.1°C 69% 11.1 mph ENE17.9 kmh ENE 13.0 mph20.9 kmh 29.96 in1014.6 mb 0.00 in0.0 mm 0.00 in/hr0.0 mm/hr 0.01 in0.3 mm
12:50 PM 77.8°F25.4°C 66.0°F18.9°C 67% 8.9 mph E14.3 kmh E 17.0 mph27.4 kmh 29.95 in1014.2 mb 0.00 in0.0 mm 0.00 in/hr0.0 mm/hr 0.01 in0.3 mm
01:00 PM 77.8°F25.4°C 66.8°F19.3°C 69% 10.7 mph ENE17.2 kmh ENE 13.0 mph20.9 kmh 29.95 in1014.2 mb 0.00 in0.0 mm 0.00 in/hr0.0 mm/hr 0.01 in0.3 mm
01:10 PM 77.8°F25.4°C 66.4°F19.1°C 68% 10.0 mph ENE16.1 kmh ENE 14.0 mph22.5 kmh 29.94 in1013.9 mb 0.00 in0.0 mm 0.00 in/hr0.0 mm/hr 0.01 in0.3 mm
01:20 PM 76.0°F24.4°C 63.8°F17.7°C 66% 11.9 mph NE19.2 kmh NE 14.0 mph22.5 kmh 29.93 in1013.5 mb 0.00 in0.0 mm 0.00 in/hr0.0 mm/hr 0.01 in0.3 mm
01:30 PM 75.3°F24.1°C 65.2°F18.4°C 71% 7.6 mph NE12.2 kmh NE 15.0 mph24.1 kmh 29.94 in1013.9 mb 0.00 in0.0 mm 0.00 in/hr0.0 mm/hr 0.01 in0.3 mm
01:40 PM 75.1°F23.9°C 65.5°F18.6°C 72% 10.5 mph ENE16.9 kmh ENE 18.0 mph29.0 kmh 29.93 in1013.5 mb 0.00 in0.0 mm 0.00 in/hr0.0 mm/hr 0.01 in0.3 mm
01:50 PM 74.3°F23.5°C 64.7°F18.2°C 72% 11.9 mph ENE19.2 kmh ENE 17.0 mph27.4 kmh 29.92 in1013.2 mb 0.00 in0.0 mm 0.00 in/hr0.0 mm/hr 0.01 in0.3 mm
02:00 PM 74.3°F23.5°C 64.7°F18.2°C 72% 11.6 mph ENE18.7 kmh ENE 21.0 mph33.8 kmh 29.91 in1012.9 mb 0.00 in0.0 mm 0.00 in/hr0.0 mm/hr 0.01 in0.3 mm
02:10 PM 74.6°F23.7°C 65.8°F18.8°C 74% 9.9 mph ENE15.9 kmh ENE 12.0 mph19.3 kmh 29.91 in1012.9 mb 0.00 in0.0 mm 0.00 in/hr0.0 mm/hr 0.01 in0.3 mm
02:20 PM 74.0°F23.3°C 65.6°F18.7°C 75% 8.3 mph E13.4 kmh E 12.0 mph19.3 kmh 29.91 in1012.9 mb 0.00 in0.0 mm 0.00 in/hr0.0 mm/hr 0.01 in0.3 mm
02:30 PM 73.5°F23.1°C 65.5°F18.6°C 76% 9.0 mph E14.5 kmh E 14.0 mph22.5 kmh 29.91 in1012.9 mb 0.00 in0.0 mm 0.00 in/hr0.0 mm/hr 0.01 in0.3 mm
02:40 PM 73.0°F22.8°C 65.0°F18.3°C 76% 9.4 mph ENE15.1 kmh ENE 20.0 mph32.2 kmh 29.90 in1012.5 mb 0.00 in0.0 mm 0.00 in/hr0.0 mm/hr 0.01 in0.3 mm
02:50 PM 72.7°F22.6°C 65.1°F18.4°C 77% 11.6 mph E18.7 kmh E 16.0 mph25.7 kmh 29.90 in1012.5 mb 0.00 in0.0 mm 0.00 in/hr0.0 mm/hr 0.01 in0.3 mm
03:00 PM 72.6°F22.6°C 65.3°F18.5°C 78% 11.8 mph E19.0 kmh E 14.0 mph22.5 kmh 29.91 in1012.9 mb 0.00 in0.0 mm 0.00 in/hr0.0 mm/hr 0.01 in0.3 mm
03:10 PM 72.5°F22.5°C 66.0°F18.9°C 80% 9.6 mph E15.4 kmh E 11.0 mph17.7 kmh 29.91 in1012.9 mb 0.00 in0.0 mm 0.00 in/hr0.0 mm/hr 0.01 in0.3 mm
03:20 PM 72.5°F22.5°C 65.6°F18.7°C 79% 10.7 mph E17.2 kmh E 13.0 mph20.9 kmh 29.90 in1012.5 mb 0.00 in0.0 mm 0.00 in/hr0.0 mm/hr 0.01 in0.3 mm
03:30 PM 72.6°F22.6°C 65.7°F18.7°C 79% 9.6 mph E15.4 kmh E 15.0 mph24.1 kmh 29.90 in1012.5 mb 0.00 in0.0 mm 0.00 in/hr0.0 mm/hr 0.01 in0.3 mm
03:40 PM 72.7°F22.6°C 65.8°F18.8°C 79% 12.2 mph E19.6 kmh E 15.0 mph24.1 kmh 29.91 in1012.9 mb 0.00 in0.0 mm 0.00 in/hr0.0 mm/hr 0.01 in0.3 mm
03:50 PM 73.0°F22.8°C 65.7°F18.7°C 78% 6.4 mph E10.3 kmh E 10.0 mph16.1 kmh 29.91 in1012.9 mb 0.00 in0.0 mm 0.00 in/hr0.0 mm/hr 0.01 in0.3 mm
04:00 PM 73.1°F22.8°C 65.8°F18.8°C 78% 7.0 mph E11.3 kmh E 15.0 mph24.1 kmh 29.91 in1012.9 mb 0.00 in0.0 mm 0.00 in/hr0.0 mm/hr 0.01 in0.3 mm
04:10 PM 72.8°F22.7°C 65.9°F18.8°C 79% 7.3 mph E11.7 kmh E 8.0 mph12.9 kmh 29.92 in1013.2 mb 0.00 in0.0 mm 0.00 in/hr0.0 mm/hr 0.01 in0.3 mm
04:20 PM 72.6°F22.6°C 66.1°F18.9°C 80% 7.8 mph ENE12.6 kmh ENE 12.0 mph19.3 kmh 29.92 in1013.2 mb 0.00 in0.0 mm 0.00 in/hr0.0 mm/hr 0.01 in0.3 mm
04:30 PM 72.5°F22.5°C 66.3°F19.1°C 81% 8.6 mph ENE13.8 kmh ENE 11.0 mph17.7 kmh 29.92 in1013.2 mb 0.00 in0.0 mm 0.00 in/hr0.0 mm/hr 0.01 in0.3 mm
04:40 PM 72.5°F22.5°C 66.3°F19.1°C 81% 6.0 mph ENE9.7 kmh ENE 9.0 mph14.5 kmh 29.92 in1013.2 mb 0.00 in0.0 mm 0.00 in/hr0.0 mm/hr 0.01 in0.3 mm
04:50 PM 72.5°F22.5°C 66.3°F19.1°C 81% 9.6 mph E15.4 kmh E 19.0 mph30.6 kmh 29.93 in1013.5 mb 0.00 in0.0 mm 0.00 in/hr0.0 mm/hr 0.01 in0.3 mm
05:00 PM 72.3°F22.4°C 66.5°F19.2°C 82% 6.8 mph NE10.9 kmh NE 11.0 mph17.7 kmh 29.93 in1013.5 mb 0.00 in0.0 mm 0.00 in/hr0.0 mm/hr 0.01 in0.3 mm
05:10 PM 71.7°F22.1°C 66.3°F19.1°C 83% 9.5 mph E15.3 kmh E 16.0 mph25.7 kmh 29.93 in1013.5 mb 0.00 in0.0 mm 0.00 in/hr0.0 mm/hr 0.01 in0.3 mm
05:20 PM 71.2°F21.8°C 66.1°F18.9°C 84% 5.3 mph E8.5 kmh E 17.0 mph27.4 kmh 29.93 in1013.5 mb 0.00 in0.0 mm 0.00 in/hr0.0 mm/hr 0.01 in0.3 mm
05:30 PM 70.9°F21.6°C 65.8°F18.8°C 84% 4.1 mph ENE6.6 kmh ENE 10.0 mph16.1 kmh 29.93 in1013.5 mb 0.00 in0.0 mm 0.00 in/hr0.0 mm/hr 0.01 in0.3 mm
05:40 PM 70.6°F21.4°C 65.5°F18.6°C 84% 8.2 mph ENE13.2 kmh ENE 11.0 mph17.7 kmh 29.93 in1013.5 mb 0.00 in0.0 mm 0.00 in/hr0.0 mm/hr 0.01 in0.3 mm
05:50 PM 70.3°F21.3°C 65.6°F18.7°C 85% 11.1 mph ENE17.9 kmh ENE 21.0 mph33.8 kmh 29.93 in1013.5 mb 0.00 in0.0 mm 0.00 in/hr0.0 mm/hr 0.01 in0.3 mm
06:00 PM 70.2°F21.2°C 64.8°F18.2°C 83% 9.6 mph E15.4 kmh E 14.0 mph22.5 kmh 29.92 in1013.2 mb 0.00 in0.0 mm 0.00 in/hr0.0 mm/hr 0.01 in0.3 mm
06:10 PM 70.1°F21.2°C 63.7°F17.6°C 80% 8.9 mph E14.3 kmh E 18.0 mph29.0 kmh 29.93 in1013.5 mb 0.00 in0.0 mm 0.00 in/hr0.0 mm/hr 0.01 in0.3 mm
06:20 PM 70.4°F21.3°C 63.2°F17.3°C 78% 10.7 mph E17.2 kmh E 22.0 mph35.4 kmh 29.94 in1013.9 mb 0.00 in0.0 mm 0.00 in/hr0.0 mm/hr 0.01 in0.3 mm
06:30 PM 70.5°F21.4°C 64.7°F18.2°C 82% 10.5 mph ENE16.9 kmh ENE 16.0 mph25.7 kmh 29.95 in1014.2 mb 0.00 in0.0 mm 0.00 in/hr0.0 mm/hr 0.01 in0.3 mm
06:40 PM 69.5°F20.8°C 65.2°F18.4°C 86% 10.9 mph ENE17.5 kmh ENE 16.0 mph25.7 kmh 29.95 in1014.2 mb 0.00 in0.0 mm 0.00 in/hr0.0 mm/hr 0.01 in0.3 mm
06:50 PM 69.2°F20.7°C 64.2°F17.9°C 84% 9.7 mph E15.6 kmh E 21.0 mph33.8 kmh 29.96 in1014.6 mb 0.00 in0.0 mm 0.00 in/hr0.0 mm/hr 0.01 in0.3 mm
07:00 PM 69.2°F20.7°C 63.8°F17.7°C 83% 9.5 mph E15.3 kmh E 18.0 mph29.0 kmh 29.97 in1014.9 mb 0.00 in0.0 mm 0.00 in/hr0.0 mm/hr 0.01 in0.3 mm
07:10 PM 69.4°F20.8°C 63.3°F17.4°C 81% 9.0 mph E14.5 kmh E 15.0 mph24.1 kmh 29.96 in1014.6 mb 0.00 in0.0 mm 0.00 in/hr0.0 mm/hr 0.01 in0.3 mm
07:20 PM 69.1°F20.6°C 63.7°F17.6°C 83% 12.1 mph E19.5 kmh E 16.0 mph25.7 kmh 29.97 in1014.9 mb 0.00 in0.0 mm 0.00 in/hr0.0 mm/hr 0.01 in0.3 mm
07:30 PM 69.3°F20.7°C 63.6°F17.6°C 82% 8.7 mph E14.0 kmh E 11.0 mph17.7 kmh 29.97 in1014.9 mb 0.00 in0.0 mm 0.00 in/hr0.0 mm/hr 0.01 in0.3 mm
07:40 PM 69.3°F20.7°C 63.9°F17.7°C 83% 9.6 mph ESE15.4 kmh ESE 17.0 mph27.4 kmh 29.97 in1014.9 mb 0.00 in0.0 mm 0.00 in/hr0.0 mm/hr 0.01 in0.3 mm
07:50 PM 69.5°F20.8°C 63.4°F17.4°C 81% 8.6 mph E13.8 kmh E 16.0 mph25.7 kmh 29.97 in1014.9 mb 0.00 in0.0 mm 0.00 in/hr0.0 mm/hr 0.01 in0.3 mm
08:00 PM 69.7°F20.9°C 63.3°F17.4°C 80% 8.5 mph E13.7 kmh E 11.0 mph17.7 kmh 29.98 in1015.2 mb 0.00 in0.0 mm 0.00 in/hr0.0 mm/hr 0.01 in0.3 mm
08:10 PM 69.6°F20.9°C 63.2°F17.3°C 80% 9.1 mph E14.6 kmh E 13.0 mph20.9 kmh 29.98 in1015.2 mb 0.00 in0.0 mm 0.00 in/hr0.0 mm/hr 0.01 in0.3 mm
08:20 PM 69.5°F20.8°C 63.7°F17.6°C 82% 6.7 mph NE10.8 kmh NE 10.0 mph16.1 kmh 29.98 in1015.2 mb 0.00 in0.0 mm 0.00 in/hr0.0 mm/hr 0.01 in0.3 mm
08:30 PM 69.5°F20.8°C 63.1°F17.3°C 80% 9.9 mph ENE15.9 kmh ENE 17.0 mph27.4 kmh 29.99 in1015.6 mb 0.00 in0.0 mm 0.00 in/hr0.0 mm/hr 0.01 in0.3 mm
08:40 PM 69.5°F20.8°C 62.3°F16.8°C 78% 6.2 mph ESE10.0 kmh ESE 11.0 mph17.7 kmh 29.99 in1015.6 mb 0.00 in0.0 mm 0.00 in/hr0.0 mm/hr 0.01 in0.3 mm
08:50 PM 69.3°F20.7°C 63.3°F17.4°C 81% 6.7 mph ENE10.8 kmh ENE 10.0 mph16.1 kmh 29.99 in1015.6 mb 0.00 in0.0 mm 0.00 in/hr0.0 mm/hr 0.01 in0.3 mm
09:00 PM 68.5°F20.3°C 63.5°F17.5°C 84% 8.8 mph E14.2 kmh E 12.0 mph19.3 kmh 30.00 in1015.9 mb 0.01 in0.3 mm 0.01 in/hr0.3 mm/hr 0.02 in0.5 mm
09:10 PM 68.0°F20.0°C 63.0°F17.2°C 84% 8.4 mph ESE13.5 kmh ESE 16.0 mph25.7 kmh 29.99 in1015.6 mb 0.00 in0.0 mm 0.00 in/hr0.0 mm/hr 0.02 in0.5 mm
09:20 PM 68.2°F20.1°C 63.9°F17.7°C 86% 4.7 mph NE7.6 kmh NE 10.0 mph16.1 kmh 29.99 in1015.6 mb 0.00 in0.0 mm 0.00 in/hr0.0 mm/hr 0.02 in0.5 mm
09:30 PM 68.2°F20.1°C 63.5°F17.5°C 85% 8.6 mph E13.8 kmh E 16.0 mph25.7 kmh 29.99 in1015.6 mb 0.00 in0.0 mm 0.00 in/hr0.0 mm/hr 0.02 in0.5 mm
09:40 PM 68.6°F20.3°C 63.6°F17.6°C 84% 7.5 mph E12.1 kmh E 13.0 mph20.9 kmh 29.99 in1015.6 mb 0.00 in0.0 mm 0.00 in/hr0.0 mm/hr 0.02 in0.5 mm
09:50 PM 68.9°F20.5°C 63.9°F17.7°C 84% 6.6 mph ESE10.6 kmh ESE 12.0 mph19.3 kmh 29.99 in1015.6 mb 0.00 in0.0 mm 0.00 in/hr0.0 mm/hr 0.02 in0.5 mm
10:00 PM 68.9°F20.5°C 63.9°F17.7°C 84% 7.9 mph ESE12.7 kmh ESE 12.0 mph19.3 kmh 29.99 in1015.6 mb 0.00 in0.0 mm 0.00 in/hr0.0 mm/hr 0.02 in0.5 mm
10:10 PM 68.7°F20.4°C 63.3°F17.4°C 83% 9.2 mph E14.8 kmh E 12.0 mph19.3 kmh 29.98 in1015.2 mb 0.00 in0.0 mm 0.00 in/hr0.0 mm/hr 0.02 in0.5 mm
10:20 PM 69.0°F20.6°C 63.2°F17.3°C 82% 9.5 mph ENE15.3 kmh ENE 12.0 mph19.3 kmh 29.98 in1015.2 mb 0.00 in0.0 mm 0.00 in/hr0.0 mm/hr 0.02 in0.5 mm
10:30 PM 69.3°F20.7°C 63.5°F17.5°C 82% 7.4 mph E11.9 kmh E 9.0 mph14.5 kmh 29.98 in1015.2 mb 0.00 in0.0 mm 0.00 in/hr0.0 mm/hr 0.02 in0.5 mm
10:40 PM 69.5°F20.8°C 64.1°F17.8°C 83% 8.3 mph E13.4 kmh E 12.0 mph19.3 kmh 29.99 in1015.6 mb 0.01 in0.3 mm 0.06 in/hr1.5 mm/hr 0.03 in0.8 mm
10:50 PM 69.0°F20.6°C 64.9°F18.3°C 87% 7.2 mph ENE11.6 kmh ENE 10.0 mph16.1 kmh 29.98 in1015.2 mb 0.01 in0.3 mm 0.06 in/hr1.5 mm/hr 0.03 in0.8 mm
11:00 PM 68.6°F20.3°C 65.2°F18.4°C 89% 8.3 mph E13.4 kmh E 9.0 mph14.5 kmh 29.98 in1015.2 mb 0.01 in0.3 mm 0.01 in/hr0.3 mm/hr 0.04 in1.0 mm
11:10 PM 68.7°F20.4°C 65.6°F18.7°C 90% 5.7 mph E9.2 kmh E 10.0 mph16.1 kmh 29.98 in1015.2 mb 0.00 in0.0 mm 0.00 in/hr0.0 mm/hr 0.04 in1.0 mm
11:20 PM 68.8°F20.4°C 66.1°F18.9°C 91% 2.5 mph E4.0 kmh E 2.0 mph3.2 kmh 29.98 in1015.2 mb 0.00 in0.0 mm 0.00 in/hr0.0 mm/hr 0.04 in1.0 mm
11:30 PM 68.8°F20.4°C 65.7°F18.7°C 90% 7.2 mph E11.6 kmh E 14.0 mph22.5 kmh 29.97 in1014.9 mb 0.00 in0.0 mm 0.00 in/hr0.0 mm/hr 0.04 in1.0 mm
11:40 PM 68.9°F20.5°C 65.8°F18.8°C 90% 4.3 mph E6.9 kmh E 15.0 mph24.1 kmh 29.97 in1014.9 mb 0.00 in0.0 mm 0.00 in/hr0.0 mm/hr 0.04 in1.0 mm
11:50 PM 68.8°F20.4°C 65.4°F18.6°C 89% 11.4 mph E18.3 kmh E 18.0 mph29.0 kmh 29.97 in1014.9 mb 0.00 in0.0 mm 0.00 in/hr0.0 mm/hr 0.04 in1.0 mm